sensor_id;sensor_type;location;lat;lon;timestamp;temperature;humidity
12438;DHT22;6283;51.330;12.374;2023-08-08T00:00:35;13.00;99.90
12438;DHT22;6283;51.330;12.374;2023-08-08T00:03:01;13.10;99.90
12438;DHT22;6283;51.330;12.374;2023-08-08T00:05:27;13.30;99.90
12438;DHT22;6283;51.330;12.374;2023-08-08T00:07:52;13.20;99.90
12438;DHT22;6283;51.330;12.374;2023-08-08T00:10:18;13.10;99.90
12438;DHT22;6283;51.330;12.374;2023-08-08T00:12:44;13.20;99.90
12438;DHT22;6283;51.330;12.374;2023-08-08T00:15:10;13.00;99.90
12438;DHT22;6283;51.330;12.374;2023-08-08T00:17:35;13.20;99.90
12438;DHT22;6283;51.330;12.374;2023-08-08T00:20:01;12.90;99.90
12438;DHT22;6283;51.330;12.374;2023-08-08T00:22:27;13.00;99.90
12438;DHT22;6283;51.330;12.374;2023-08-08T00:24:53;13.00;99.90
12438;DHT22;6283;51.330;12.374;2023-08-08T00:27:18;13.00;99.90
12438;DHT22;6283;51.330;12.374;2023-08-08T00:29:44;13.00;99.90
12438;DHT22;6283;51.330;12.374;2023-08-08T00:32:11;13.00;99.90
12438;DHT22;6283;51.330;12.374;2023-08-08T00:34:36;13.00;99.90
12438;DHT22;6283;51.330;12.374;2023-08-08T00:37:02;12.90;99.90
12438;DHT22;6283;51.330;12.374;2023-08-08T00:39:28;13.10;99.90
12438;DHT22;6283;51.330;12.374;2023-08-08T00:41:53;13.00;99.90
12438;DHT22;6283;51.330;12.374;2023-08-08T00:44:19;13.00;99.90
12438;DHT22;6283;51.330;12.374;2023-08-08T00:46:44;13.00;99.90
12438;DHT22;6283;51.330;12.374;2023-08-08T00:49:10;12.90;99.90
12438;DHT22;6283;51.330;12.374;2023-08-08T00:51:36;13.00;99.90
12438;DHT22;6283;51.330;12.374;2023-08-08T00:54:02;12.80;99.90
12438;DHT22;6283;51.330;12.374;2023-08-08T00:56:29;12.90;99.90
12438;DHT22;6283;51.330;12.374;2023-08-08T00:58:55;12.90;99.90
12438;DHT22;6283;51.330;12.374;2023-08-08T01:01:20;12.80;99.90
12438;DHT22;6283;51.330;12.374;2023-08-08T01:03:46;13.10;99.90
12438;DHT22;6283;51.330;12.374;2023-08-08T01:06:19;12.90;99.90
12438;DHT22;6283;51.330;12.374;2023-08-08T01:11:38;12.90;99.90
12438;DHT22;6283;51.330;12.374;2023-08-08T01:14:06;12.90;99.90
12438;DHT22;6283;51.330;12.374;2023-08-08T01:16:37;12.90;99.90
12438;DHT22;6283;51.330;12.374;2023-08-08T01:19:05;12.90;99.90
12438;DHT22;6283;51.330;12.374;2023-08-08T01:21:33;12.90;99.90
12438;DHT22;6283;51.330;12.374;2023-08-08T01:24:21;13.00;99.90
12438;DHT22;6283;51.330;12.374;2023-08-08T01:26:47;13.00;99.90
12438;DHT22;6283;51.330;12.374;2023-08-08T01:29:13;12.90;99.90
12438;DHT22;6283;51.330;12.374;2023-08-08T01:31:39;12.90;99.90
12438;DHT22;6283;51.330;12.374;2023-08-08T01:34:05;12.90;99.90
12438;DHT22;6283;51.330;12.374;2023-08-08T01:39:30;13.00;99.90
12438;DHT22;6283;51.330;12.374;2023-08-08T01:41:56;13.00;99.90
12438;DHT22;6283;51.330;12.374;2023-08-08T01:44:24;12.80;99.90
12438;DHT22;6283;51.330;12.374;2023-08-08T01:46:53;12.80;99.90
12438;DHT22;6283;51.330;12.374;2023-08-08T01:49:19;12.80;99.90
12438;DHT22;6283;51.330;12.374;2023-08-08T01:51:45;12.70;99.90
12438;DHT22;6283;51.330;12.374;2023-08-08T01:54:10;12.80;99.90
12438;DHT22;6283;51.330;12.374;2023-08-08T01:56:36;12.70;99.90
12438;DHT22;6283;51.330;12.374;2023-08-08T01:59:02;13.00;99.90
12438;DHT22;6283;51.330;12.374;2023-08-08T02:01:27;12.70;99.90
12438;DHT22;6283;51.330;12.374;2023-08-08T02:03:53;12.90;99.90
12438;DHT22;6283;51.330;12.374;2023-08-08T02:06:19;12.70;99.90
12438;DHT22;6283;51.330;12.374;2023-08-08T02:08:45;12.60;99.90
12438;DHT22;6283;51.330;12.374;2023-08-08T02:11:11;12.70;99.90
12438;DHT22;6283;51.330;12.374;2023-08-08T02:13:37;12.80;99.90
12438;DHT22;6283;51.330;12.374;2023-08-08T02:16:02;12.70;99.90
12438;DHT22;6283;51.330;12.374;2023-08-08T02:18:28;12.70;99.90
12438;DHT22;6283;51.330;12.374;2023-08-08T02:20:54;12.80;99.90
12438;DHT22;6283;51.330;12.374;2023-08-08T02:23:19;13.00;99.90
12438;DHT22;6283;51.330;12.374;2023-08-08T02:25:45;12.70;99.90
12438;DHT22;6283;51.330;12.374;2023-08-08T02:28:11;12.80;99.90
12438;DHT22;6283;51.330;12.374;2023-08-08T02:30:37;12.90;99.90
12438;DHT22;6283;51.330;12.374;2023-08-08T02:33:03;12.90;99.90
12438;DHT22;6283;51.330;12.374;2023-08-08T02:35:28;12.70;99.90
12438;DHT22;6283;51.330;12.374;2023-08-08T02:37:55;12.70;99.90
12438;DHT22;6283;51.330;12.374;2023-08-08T02:40:21;12.60;99.90
12438;DHT22;6283;51.330;12.374;2023-08-08T02:42:49;12.90;99.90
12438;DHT22;6283;51.330;12.374;2023-08-08T02:45:14;12.80;99.90
12438;DHT22;6283;51.330;12.374;2023-08-08T02:47:40;12.70;99.90
12438;DHT22;6283;51.330;12.374;2023-08-08T02:50:06;12.70;99.90
12438;DHT22;6283;51.330;12.374;2023-08-08T02:52:31;12.90;99.90
12438;DHT22;6283;51.330;12.374;2023-08-08T02:54:57;12.80;99.90
12438;DHT22;6283;51.330;12.374;2023-08-08T02:57:23;12.80;99.90
12438;DHT22;6283;51.330;12.374;2023-08-08T02:59:48;12.60;99.90
12438;DHT22;6283;51.330;12.374;2023-08-08T03:02:14;12.50;99.90
12438;DHT22;6283;51.330;12.374;2023-08-08T03:04:40;12.60;99.90
12438;DHT22;6283;51.330;12.374;2023-08-08T03:07:05;12.70;99.90
12438;DHT22;6283;51.330;12.374;2023-08-08T03:09:31;12.70;99.90
12438;DHT22;6283;51.330;12.374;2023-08-08T03:11:57;12.90;99.90
12438;DHT22;6283;51.330;12.374;2023-08-08T03:14:22;12.70;99.90
12438;DHT22;6283;51.330;12.374;2023-08-08T03:16:48;12.80;99.90
12438;DHT22;6283;51.330;12.374;2023-08-08T03:19:13;12.80;99.90
12438;DHT22;6283;51.330;12.374;2023-08-08T03:21:39;12.50;99.90
12438;DHT22;6283;51.330;12.374;2023-08-08T03:24:05;12.60;99.90
12438;DHT22;6283;51.330;12.374;2023-08-08T03:26:30;12.70;99.90
12438;DHT22;6283;51.330;12.374;2023-08-08T03:28:56;12.60;99.90
12438;DHT22;6283;51.330;12.374;2023-08-08T03:31:22;12.60;99.90
12438;DHT22;6283;51.330;12.374;2023-08-08T03:33:47;12.50;99.90
12438;DHT22;6283;51.330;12.374;2023-08-08T03:36:13;12.80;99.90
12438;DHT22;6283;51.330;12.374;2023-08-08T03:38:39;12.50;99.90
12438;DHT22;6283;51.330;12.374;2023-08-08T03:41:05;12.70;99.90
12438;DHT22;6283;51.330;12.374;2023-08-08T03:43:31;12.80;99.90
12438;DHT22;6283;51.330;12.374;2023-08-08T03:45:56;12.60;99.90
12438;DHT22;6283;51.330;12.374;2023-08-08T03:48:22;12.50;99.90
12438;DHT22;6283;51.330;12.374;2023-08-08T03:50:48;12.60;99.90
12438;DHT22;6283;51.330;12.374;2023-08-08T03:53:14;12.70;99.90
12438;DHT22;6283;51.330;12.374;2023-08-08T03:55:39;12.70;99.90
12438;DHT22;6283;51.330;12.374;2023-08-08T03:58:05;12.40;99.90
12438;DHT22;6283;51.330;12.374;2023-08-08T04:00:31;12.60;99.90
12438;DHT22;6283;51.330;12.374;2023-08-08T04:02:57;12.60;99.90
12438;DHT22;6283;51.330;12.374;2023-08-08T04:05:23;12.70;99.90
12438;DHT22;6283;51.330;12.374;2023-08-08T04:07:49;12.70;99.90
12438;DHT22;6283;51.330;12.374;2023-08-08T04:10:15;12.70;99.90
12438;DHT22;6283;51.330;12.374;2023-08-08T04:12:41;12.70;99.90
12438;DHT22;6283;51.330;12.374;2023-08-08T04:15:07;12.90;99.90
12438;DHT22;6283;51.330;12.374;2023-08-08T04:17:32;12.80;99.90
12438;DHT22;6283;51.330;12.374;2023-08-08T04:19:58;12.80;99.90
12438;DHT22;6283;51.330;12.374;2023-08-08T04:22:24;13.00;99.90
12438;DHT22;6283;51.330;12.374;2023-08-08T04:24:50;13.00;99.90
12438;DHT22;6283;51.330;12.374;2023-08-08T04:27:15;13.00;99.90
12438;DHT22;6283;51.330;12.374;2023-08-08T04:29:41;12.90;99.90
12438;DHT22;6283;51.330;12.374;2023-08-08T04:32:07;13.00;99.90
12438;DHT22;6283;51.330;12.374;2023-08-08T04:34:32;13.20;99.90
12438;DHT22;6283;51.330;12.374;2023-08-08T04:36:58;13.10;99.90
12438;DHT22;6283;51.330;12.374;2023-08-08T04:39:24;13.10;99.90
12438;DHT22;6283;51.330;12.374;2023-08-08T04:41:49;13.30;99.90
12438;DHT22;6283;51.330;12.374;2023-08-08T04:44:15;13.20;99.90
12438;DHT22;6283;51.330;12.374;2023-08-08T04:46:41;13.20;99.90
12438;DHT22;6283;51.330;12.374;2023-08-08T04:49:06;13.30;99.90
12438;DHT22;6283;51.330;12.374;2023-08-08T04:51:33;13.40;99.90
12438;DHT22;6283;51.330;12.374;2023-08-08T04:53:58;13.40;99.90
12438;DHT22;6283;51.330;12.374;2023-08-08T04:56:24;13.30;99.90
12438;DHT22;6283;51.330;12.374;2023-08-08T04:58:50;13.50;99.90
12438;DHT22;6283;51.330;12.374;2023-08-08T05:01:15;13.40;99.90
12438;DHT22;6283;51.330;12.374;2023-08-08T05:03:43;13.40;99.90
12438;DHT22;6283;51.330;12.374;2023-08-08T05:06:08;13.40;99.90
12438;DHT22;6283;51.330;12.374;2023-08-08T05:08:34;13.50;99.90
12438;DHT22;6283;51.330;12.374;2023-08-08T05:11:00;13.60;99.90
12438;DHT22;6283;51.330;12.374;2023-08-08T05:13:25;13.50;99.90
12438;DHT22;6283;51.330;12.374;2023-08-08T05:15:51;13.80;99.90
12438;DHT22;6283;51.330;12.374;2023-08-08T05:18:17;13.60;99.90
12438;DHT22;6283;51.330;12.374;2023-08-08T05:20:42;13.70;99.90
12438;DHT22;6283;51.330;12.374;2023-08-08T05:23:08;13.80;99.90
12438;DHT22;6283;51.330;12.374;2023-08-08T05:25:34;13.70;99.90
12438;DHT22;6283;51.330;12.374;2023-08-08T05:27:59;13.70;99.90
12438;DHT22;6283;51.330;12.374;2023-08-08T05:30:25;13.80;99.90
12438;DHT22;6283;51.330;12.374;2023-08-08T05:32:51;13.80;99.90
12438;DHT22;6283;51.330;12.374;2023-08-08T05:35:16;13.80;99.90
12438;DHT22;6283;51.330;12.374;2023-08-08T05:37:42;14.00;99.90
12438;DHT22;6283;51.330;12.374;2023-08-08T05:40:08;13.90;99.90
12438;DHT22;6283;51.330;12.374;2023-08-08T05:42:35;13.70;99.90
12438;DHT22;6283;51.330;12.374;2023-08-08T05:45:01;13.70;99.90
12438;DHT22;6283;51.330;12.374;2023-08-08T05:47:27;13.90;99.90
12438;DHT22;6283;51.330;12.374;2023-08-08T05:49:52;13.90;99.90
12438;DHT22;6283;51.330;12.374;2023-08-08T05:52:18;13.90;99.90
12438;DHT22;6283;51.330;12.374;2023-08-08T05:54:44;14.00;99.90
12438;DHT22;6283;51.330;12.374;2023-08-08T05:57:09;13.90;99.90
12438;DHT22;6283;51.330;12.374;2023-08-08T05:59:35;14.10;99.90
12438;DHT22;6283;51.330;12.374;2023-08-08T06:02:00;14.20;99.90
12438;DHT22;6283;51.330;12.374;2023-08-08T06:04:26;14.10;99.90
12438;DHT22;6283;51.330;12.374;2023-08-08T06:06:52;14.10;99.90
12438;DHT22;6283;51.330;12.374;2023-08-08T06:09:17;14.30;99.90
12438;DHT22;6283;51.330;12.374;2023-08-08T06:11:43;14.20;99.90
12438;DHT22;6283;51.330;12.374;2023-08-08T06:14:09;14.20;99.90
12438;DHT22;6283;51.330;12.374;2023-08-08T06:16:35;14.30;99.90
12438;DHT22;6283;51.330;12.374;2023-08-08T06:19:00;14.30;99.90
12438;DHT22;6283;51.330;12.374;2023-08-08T06:21:26;14.40;99.90
12438;DHT22;6283;51.330;12.374;2023-08-08T06:23:52;14.40;99.90
12438;DHT22;6283;51.330;12.374;2023-08-08T06:26:21;14.50;99.90
12438;DHT22;6283;51.330;12.374;2023-08-08T06:28:47;14.70;99.90
12438;DHT22;6283;51.330;12.374;2023-08-08T06:31:13;14.50;99.90
12438;DHT22;6283;51.330;12.374;2023-08-08T06:33:39;14.50;99.90
12438;DHT22;6283;51.330;12.374;2023-08-08T06:36:05;14.50;99.90
12438;DHT22;6283;51.330;12.374;2023-08-08T06:38:31;14.50;99.90
12438;DHT22;6283;51.330;12.374;2023-08-08T06:41:01;14.50;99.90
12438;DHT22;6283;51.330;12.374;2023-08-08T06:43:27;14.60;99.90
12438;DHT22;6283;51.330;12.374;2023-08-08T06:45:53;14.60;99.90
12438;DHT22;6283;51.330;12.374;2023-08-08T06:48:19;14.60;99.90
12438;DHT22;6283;51.330;12.374;2023-08-08T06:50:44;14.70;99.90
12438;DHT22;6283;51.330;12.374;2023-08-08T06:53:10;14.70;99.90
12438;DHT22;6283;51.330;12.374;2023-08-08T06:55:36;14.80;99.90
12438;DHT22;6283;51.330;12.374;2023-08-08T06:58:02;14.80;99.90
12438;DHT22;6283;51.330;12.374;2023-08-08T07:00:28;14.80;99.90
12438;DHT22;6283;51.330;12.374;2023-08-08T07:02:54;14.90;99.90
12438;DHT22;6283;51.330;12.374;2023-08-08T07:05:20;15.00;99.90
12438;DHT22;6283;51.330;12.374;2023-08-08T07:07:49;15.00;99.90
12438;DHT22;6283;51.330;12.374;2023-08-08T07:10:15;15.10;99.90
12438;DHT22;6283;51.330;12.374;2023-08-08T07:12:41;15.10;99.90
12438;DHT22;6283;51.330;12.374;2023-08-08T07:15:07;15.20;99.90
12438;DHT22;6283;51.330;12.374;2023-08-08T07:17:33;15.30;99.90
12438;DHT22;6283;51.330;12.374;2023-08-08T07:19:58;15.40;99.90
12438;DHT22;6283;51.330;12.374;2023-08-08T07:22:24;15.40;99.90
12438;DHT22;6283;51.330;12.374;2023-08-08T07:24:50;15.40;99.90
12438;DHT22;6283;51.330;12.374;2023-08-08T07:27:16;15.40;99.90
12438;DHT22;6283;51.330;12.374;2023-08-08T07:29:41;15.30;99.90
12438;DHT22;6283;51.330;12.374;2023-08-08T07:32:07;15.30;99.90
12438;DHT22;6283;51.330;12.374;2023-08-08T07:34:33;15.20;99.90
12438;DHT22;6283;51.330;12.374;2023-08-08T07:36:59;15.10;99.90
12438;DHT22;6283;51.330;12.374;2023-08-08T07:39:24;15.10;99.90
12438;DHT22;6283;51.330;12.374;2023-08-08T07:41:51;15.10;99.90
12438;DHT22;6283;51.330;12.374;2023-08-08T07:44:16;15.00;99.90
12438;DHT22;6283;51.330;12.374;2023-08-08T07:46:42;15.00;99.90
12438;DHT22;6283;51.330;12.374;2023-08-08T07:49:08;15.00;99.90
12438;DHT22;6283;51.330;12.374;2023-08-08T07:51:35;14.90;99.90
12438;DHT22;6283;51.330;12.374;2023-08-08T07:54:01;14.80;99.90
12438;DHT22;6283;51.330;12.374;2023-08-08T07:56:27;14.90;99.90
12438;DHT22;6283;51.330;12.374;2023-08-08T07:58:52;14.90;99.90
12438;DHT22;6283;51.330;12.374;2023-08-08T08:01:18;15.00;99.90
12438;DHT22;6283;51.330;12.374;2023-08-08T08:03:44;15.00;99.90
12438;DHT22;6283;51.330;12.374;2023-08-08T08:06:11;15.10;99.90
12438;DHT22;6283;51.330;12.374;2023-08-08T08:08:37;15.10;99.90
12438;DHT22;6283;51.330;12.374;2023-08-08T08:11:04;15.20;99.90
12438;DHT22;6283;51.330;12.374;2023-08-08T08:13:29;15.30;99.90
12438;DHT22;6283;51.330;12.374;2023-08-08T08:15:55;15.30;99.90
12438;DHT22;6283;51.330;12.374;2023-08-08T08:18:21;15.40;99.90
12438;DHT22;6283;51.330;12.374;2023-08-08T08:20:47;15.40;99.90
12438;DHT22;6283;51.330;12.374;2023-08-08T08:23:13;15.40;99.90
12438;DHT22;6283;51.330;12.374;2023-08-08T08:25:38;15.40;99.90
12438;DHT22;6283;51.330;12.374;2023-08-08T08:28:04;15.40;99.90
12438;DHT22;6283;51.330;12.374;2023-08-08T08:30:30;15.40;99.90
12438;DHT22;6283;51.330;12.374;2023-08-08T08:32:55;15.40;99.90
12438;DHT22;6283;51.330;12.374;2023-08-08T08:35:22;15.40;99.90
12438;DHT22;6283;51.330;12.374;2023-08-08T08:37:48;15.40;99.90
12438;DHT22;6283;51.330;12.374;2023-08-08T08:40:14;15.40;99.90
12438;DHT22;6283;51.330;12.374;2023-08-08T08:42:40;15.40;99.90
12438;DHT22;6283;51.330;12.374;2023-08-08T08:45:09;15.30;99.90
12438;DHT22;6283;51.330;12.374;2023-08-08T08:47:36;15.30;99.90
12438;DHT22;6283;51.330;12.374;2023-08-08T08:50:03;15.30;99.90
12438;DHT22;6283;51.330;12.374;2023-08-08T08:52:30;15.20;99.90
12438;DHT22;6283;51.330;12.374;2023-08-08T08:54:56;15.10;99.90
12438;DHT22;6283;51.330;12.374;2023-08-08T08:57:22;15.10;99.90
12438;DHT22;6283;51.330;12.374;2023-08-08T08:59:51;15.10;99.90
12438;DHT22;6283;51.330;12.374;2023-08-08T09:02:18;15.00;99.90
12438;DHT22;6283;51.330;12.374;2023-08-08T09:04:44;14.90;99.90
12438;DHT22;6283;51.330;12.374;2023-08-08T09:07:11;14.90;99.90
12438;DHT22;6283;51.330;12.374;2023-08-08T09:09:38;14.80;99.90
12438;DHT22;6283;51.330;12.374;2023-08-08T09:12:04;14.80;99.90
12438;DHT22;6283;51.330;12.374;2023-08-08T09:14:31;14.90;99.90
12438;DHT22;6283;51.330;12.374;2023-08-08T09:16:56;14.90;99.90
12438;DHT22;6283;51.330;12.374;2023-08-08T09:19:23;15.00;99.90
12438;DHT22;6283;51.330;12.374;2023-08-08T09:21:49;15.10;99.90
12438;DHT22;6283;51.330;12.374;2023-08-08T09:24:16;15.20;99.90
12438;DHT22;6283;51.330;12.374;2023-08-08T09:26:44;15.30;99.90
12438;DHT22;6283;51.330;12.374;2023-08-08T09:29:12;15.40;99.90
12438;DHT22;6283;51.330;12.374;2023-08-08T09:31:39;15.50;99.90
12438;DHT22;6283;51.330;12.374;2023-08-08T09:34:05;15.60;99.90
12438;DHT22;6283;51.330;12.374;2023-08-08T09:36:31;15.60;99.90
12438;DHT22;6283;51.330;12.374;2023-08-08T09:38:59;15.70;99.90
12438;DHT22;6283;51.330;12.374;2023-08-08T09:41:24;15.80;99.90
12438;DHT22;6283;51.330;12.374;2023-08-08T09:43:51;15.90;99.90
12438;DHT22;6283;51.330;12.374;2023-08-08T09:46:21;16.10;99.90
12438;DHT22;6283;51.330;12.374;2023-08-08T09:48:47;16.30;99.90
12438;DHT22;6283;51.330;12.374;2023-08-08T09:51:14;16.40;99.90
12438;DHT22;6283;51.330;12.374;2023-08-08T09:53:40;16.60;99.90
12438;DHT22;6283;51.330;12.374;2023-08-08T09:56:07;16.80;99.90
12438;DHT22;6283;51.330;12.374;2023-08-08T09:58:35;17.10;75.60
12438;DHT22;6283;51.330;12.374;2023-08-08T10:01:01;17.20;27.30
12438;DHT22;6283;51.330;12.374;2023-08-08T10:03:31;17.30;5.80
12438;DHT22;6283;51.330;12.374;2023-08-08T10:05:57;17.40;1.10
12438;DHT22;6283;51.330;12.374;2023-08-08T10:08:23;17.50;1.00
12438;DHT22;6283;51.330;12.374;2023-08-08T10:10:50;17.60;1.00
12438;DHT22;6283;51.330;12.374;2023-08-08T10:13:26;17.70;1.00
12438;DHT22;6283;51.330;12.374;2023-08-08T10:15:53;17.70;1.00
12438;DHT22;6283;51.330;12.374;2023-08-08T10:18:21;17.70;1.00
12438;DHT22;6283;51.330;12.374;2023-08-08T10:20:48;17.80;1.00
12438;DHT22;6283;51.330;12.374;2023-08-08T10:23:18;17.90;1.00
12438;DHT22;6283;51.330;12.374;2023-08-08T10:25:51;18.00;1.00
12438;DHT22;6283;51.330;12.374;2023-08-08T10:28:19;17.90;1.00
12438;DHT22;6283;51.330;12.374;2023-08-08T10:33:20;17.70;1.00
12438;DHT22;6283;51.330;12.374;2023-08-08T10:35:58;17.60;1.00
12438;DHT22;6283;51.330;12.374;2023-08-08T10:38:26;17.50;1.00
12438;DHT22;6283;51.330;12.374;2023-08-08T10:40:58;17.50;1.00
12438;DHT22;6283;51.330;12.374;2023-08-08T10:43:29;17.50;1.00
12438;DHT22;6283;51.330;12.374;2023-08-08T10:45:59;17.50;1.00
12438;DHT22;6283;51.330;12.374;2023-08-08T10:48:26;17.60;1.00
12438;DHT22;6283;51.330;12.374;2023-08-08T10:50:54;17.60;1.00
12438;DHT22;6283;51.330;12.374;2023-08-08T10:53:24;17.60;1.00
12438;DHT22;6283;51.330;12.374;2023-08-08T10:56:00;17.40;1.00
12438;DHT22;6283;51.330;12.374;2023-08-08T10:58:37;17.30;1.00
12438;DHT22;6283;51.330;12.374;2023-08-08T11:01:03;17.10;1.00
12438;DHT22;6283;51.330;12.374;2023-08-08T11:03:34;17.20;1.00
12438;DHT22;6283;51.330;12.374;2023-08-08T11:06:01;17.20;1.00
12438;DHT22;6283;51.330;12.374;2023-08-08T11:08:30;17.20;1.00
12438;DHT22;6283;51.330;12.374;2023-08-08T11:10:56;17.30;1.00
12438;DHT22;6283;51.330;12.374;2023-08-08T11:13:22;17.30;1.00
12438;DHT22;6283;51.330;12.374;2023-08-08T11:15:48;17.40;1.00
12438;DHT22;6283;51.330;12.374;2023-08-08T11:18:14;17.50;1.00
12438;DHT22;6283;51.330;12.374;2023-08-08T11:20:40;17.50;1.00
12438;DHT22;6283;51.330;12.374;2023-08-08T11:23:06;17.50;1.00
12438;DHT22;6283;51.330;12.374;2023-08-08T11:25:36;17.60;1.00
12438;DHT22;6283;51.330;12.374;2023-08-08T11:28:02;17.70;1.00
12438;DHT22;6283;51.330;12.374;2023-08-08T11:30:34;17.90;1.00
12438;DHT22;6283;51.330;12.374;2023-08-08T11:33:00;18.10;1.00
12438;DHT22;6283;51.330;12.374;2023-08-08T11:35:26;18.50;1.00
12438;DHT22;6283;51.330;12.374;2023-08-08T11:37:56;18.80;1.00
12438;DHT22;6283;51.330;12.374;2023-08-08T11:40:24;19.10;1.00
12438;DHT22;6283;51.330;12.374;2023-08-08T11:42:51;19.20;1.00
12438;DHT22;6283;51.330;12.374;2023-08-08T11:45:17;19.40;1.00
12438;DHT22;6283;51.330;12.374;2023-08-08T11:47:47;19.60;1.00
12438;DHT22;6283;51.330;12.374;2023-08-08T11:50:13;19.80;1.00
12438;DHT22;6283;51.330;12.374;2023-08-08T11:52:40;20.00;1.00
12438;DHT22;6283;51.330;12.374;2023-08-08T11:55:10;20.20;1.00
12438;DHT22;6283;51.330;12.374;2023-08-08T11:57:37;20.20;1.00
12438;DHT22;6283;51.330;12.374;2023-08-08T12:00:10;20.10;1.00
12438;DHT22;6283;51.330;12.374;2023-08-08T12:02:40;19.90;1.00
12438;DHT22;6283;51.330;12.374;2023-08-08T12:05:06;19.80;1.00
12438;DHT22;6283;51.330;12.374;2023-08-08T12:07:33;19.70;1.00
12438;DHT22;6283;51.330;12.374;2023-08-08T12:10:02;19.60;1.00
12438;DHT22;6283;51.330;12.374;2023-08-08T12:12:28;19.40;1.00
12438;DHT22;6283;51.330;12.374;2023-08-08T12:14:54;19.30;1.00
12438;DHT22;6283;51.330;12.374;2023-08-08T12:17:23;19.20;1.00
12438;DHT22;6283;51.330;12.374;2023-08-08T12:19:49;19.10;1.00
12438;DHT22;6283;51.330;12.374;2023-08-08T12:22:15;19.00;1.00
12438;DHT22;6283;51.330;12.374;2023-08-08T12:24:40;19.20;1.00
12438;DHT22;6283;51.330;12.374;2023-08-08T12:27:06;19.20;1.00
12438;DHT22;6283;51.330;12.374;2023-08-08T12:29:32;19.50;1.00
12438;DHT22;6283;51.330;12.374;2023-08-08T12:31:57;19.70;1.00
12438;DHT22;6283;51.330;12.374;2023-08-08T12:34:23;19.70;1.00
12438;DHT22;6283;51.330;12.374;2023-08-08T12:36:49;19.90;1.00
12438;DHT22;6283;51.330;12.374;2023-08-08T12:39:15;20.30;1.00
12438;DHT22;6283;51.330;12.374;2023-08-08T12:41:40;20.70;1.00
12438;DHT22;6283;51.330;12.374;2023-08-08T12:44:06;20.90;1.00
12438;DHT22;6283;51.330;12.374;2023-08-08T12:46:33;20.90;1.00
12438;DHT22;6283;51.330;12.374;2023-08-08T12:48:59;20.70;1.00
12438;DHT22;6283;51.330;12.374;2023-08-08T12:51:25;20.60;1.00
12438;DHT22;6283;51.330;12.374;2023-08-08T12:53:50;20.50;1.00
12438;DHT22;6283;51.330;12.374;2023-08-08T12:56:16;20.50;1.00
12438;DHT22;6283;51.330;12.374;2023-08-08T12:58:42;20.80;1.00
12438;DHT22;6283;51.330;12.374;2023-08-08T13:01:08;21.10;1.00
12438;DHT22;6283;51.330;12.374;2023-08-08T13:03:33;21.30;1.00
12438;DHT22;6283;51.330;12.374;2023-08-08T13:06:02;21.10;1.00
12438;DHT22;6283;51.330;12.374;2023-08-08T13:08:27;21.00;1.00
12438;DHT22;6283;51.330;12.374;2023-08-08T13:10:58;20.90;1.00
12438;DHT22;6283;51.330;12.374;2023-08-08T13:13:23;20.80;1.00
12438;DHT22;6283;51.330;12.374;2023-08-08T13:15:51;20.60;1.00
12438;DHT22;6283;51.330;12.374;2023-08-08T13:18:17;20.60;1.00
12438;DHT22;6283;51.330;12.374;2023-08-08T13:20:43;20.40;1.00
12438;DHT22;6283;51.330;12.374;2023-08-08T13:23:09;20.30;1.00
12438;DHT22;6283;51.330;12.374;2023-08-08T13:25:34;20.20;1.00
12438;DHT22;6283;51.330;12.374;2023-08-08T13:28:01;20.10;1.00
12438;DHT22;6283;51.330;12.374;2023-08-08T13:30:28;20.00;1.00
12438;DHT22;6283;51.330;12.374;2023-08-08T13:32:54;19.90;1.00
12438;DHT22;6283;51.330;12.374;2023-08-08T13:35:20;19.90;1.00
12438;DHT22;6283;51.330;12.374;2023-08-08T13:37:46;19.90;1.00
12438;DHT22;6283;51.330;12.374;2023-08-08T13:40:16;19.80;1.00
12438;DHT22;6283;51.330;12.374;2023-08-08T13:42:42;19.80;1.00
12438;DHT22;6283;51.330;12.374;2023-08-08T13:45:08;19.80;1.00
12438;DHT22;6283;51.330;12.374;2023-08-08T13:47:34;19.70;1.00
12438;DHT22;6283;51.330;12.374;2023-08-08T13:50:01;19.70;1.00
12438;DHT22;6283;51.330;12.374;2023-08-08T13:52:26;19.80;1.00
12438;DHT22;6283;51.330;12.374;2023-08-08T13:54:52;19.90;1.00
12438;DHT22;6283;51.330;12.374;2023-08-08T13:57:19;20.00;1.00
12438;DHT22;6283;51.330;12.374;2023-08-08T13:59:45;20.20;1.00
12438;DHT22;6283;51.330;12.374;2023-08-08T14:02:10;20.30;1.00
12438;DHT22;6283;51.330;12.374;2023-08-08T14:04:37;20.40;1.00
12438;DHT22;6283;51.330;12.374;2023-08-08T14:07:02;20.40;1.00
12438;DHT22;6283;51.330;12.374;2023-08-08T14:09:28;20.40;1.00
12438;DHT22;6283;51.330;12.374;2023-08-08T14:11:53;20.40;1.00
12438;DHT22;6283;51.330;12.374;2023-08-08T14:14:19;20.40;1.00
12438;DHT22;6283;51.330;12.374;2023-08-08T14:16:45;20.30;1.00
12438;DHT22;6283;51.330;12.374;2023-08-08T14:19:10;20.30;1.00
12438;DHT22;6283;51.330;12.374;2023-08-08T14:21:38;20.30;1.00
12438;DHT22;6283;51.330;12.374;2023-08-08T14:24:04;20.30;1.00
12438;DHT22;6283;51.330;12.374;2023-08-08T14:26:30;20.30;1.00
12438;DHT22;6283;51.330;12.374;2023-08-08T14:28:56;20.30;1.00
12438;DHT22;6283;51.330;12.374;2023-08-08T14:31:21;20.00;1.00
12438;DHT22;6283;51.330;12.374;2023-08-08T14:33:47;19.70;1.00
12438;DHT22;6283;51.330;12.374;2023-08-08T14:36:12;19.40;1.00
12438;DHT22;6283;51.330;12.374;2023-08-08T14:38:38;19.20;1.00
12438;DHT22;6283;51.330;12.374;2023-08-08T14:41:04;19.00;1.00
12438;DHT22;6283;51.330;12.374;2023-08-08T14:43:29;19.00;1.00
12438;DHT22;6283;51.330;12.374;2023-08-08T14:45:55;19.00;1.00
12438;DHT22;6283;51.330;12.374;2023-08-08T14:48:21;19.00;1.00
12438;DHT22;6283;51.330;12.374;2023-08-08T14:50:46;18.90;1.00
12438;DHT22;6283;51.330;12.374;2023-08-08T14:53:12;18.90;1.00
12438;DHT22;6283;51.330;12.374;2023-08-08T14:55:39;18.80;1.00
12438;DHT22;6283;51.330;12.374;2023-08-08T14:58:04;18.80;1.00
12438;DHT22;6283;51.330;12.374;2023-08-08T15:00:30;18.70;1.00
12438;DHT22;6283;51.330;12.374;2023-08-08T15:02:56;18.70;1.00
12438;DHT22;6283;51.330;12.374;2023-08-08T15:05:22;18.60;1.00
12438;DHT22;6283;51.330;12.374;2023-08-08T15:07:49;18.60;1.00
12438;DHT22;6283;51.330;12.374;2023-08-08T15:10:14;18.60;1.00
12438;DHT22;6283;51.330;12.374;2023-08-08T15:12:40;18.60;1.00
12438;DHT22;6283;51.330;12.374;2023-08-08T15:15:06;18.50;1.00
12438;DHT22;6283;51.330;12.374;2023-08-08T15:17:33;18.40;1.00
12438;DHT22;6283;51.330;12.374;2023-08-08T15:20:00;18.40;1.00
12438;DHT22;6283;51.330;12.374;2023-08-08T15:22:26;18.30;1.00
12438;DHT22;6283;51.330;12.374;2023-08-08T15:24:51;18.30;1.00
12438;DHT22;6283;51.330;12.374;2023-08-08T15:27:17;18.30;1.00
12438;DHT22;6283;51.330;12.374;2023-08-08T15:29:42;18.30;1.00
12438;DHT22;6283;51.330;12.374;2023-08-08T15:32:08;18.30;1.00
12438;DHT22;6283;51.330;12.374;2023-08-08T15:34:34;18.30;1.00
12438;DHT22;6283;51.330;12.374;2023-08-08T15:36:59;18.30;1.00
12438;DHT22;6283;51.330;12.374;2023-08-08T15:39:27;18.30;1.00